createdAt,value
2022-09-22T00:01:03.927Z,96301.38
2022-09-22T00:06:06.842Z,96311.22
2022-09-22T00:11:13.908Z,96312.25
2022-09-22T00:16:18.063Z,96312.69
2022-09-22T00:21:31.264Z,96313.97
2022-09-22T00:26:34.890Z,96307.59
2022-09-22T00:31:37.605Z,96304.19
2022-09-22T00:36:40.426Z,96292.81
2022-09-22T00:41:44.306Z,96293.44
2022-09-22T00:46:47.138Z,96283.78
2022-09-22T00:51:50.349Z,96278.16
2022-09-22T00:56:53.022Z,96279.69
2022-09-22T01:01:55.860Z,96270.28
2022-09-22T01:06:58.620Z,96268.56
2022-09-22T01:12:01.323Z,96264.72
2022-09-22T01:17:04.098Z,96256.94
2022-09-22T01:22:06.906Z,96255.19
2022-09-22T01:27:09.619Z,96244.19
2022-09-22T01:32:12.329Z,96241.53
2022-09-22T01:37:15.217Z,96248.91
2022-09-22T01:42:18.234Z,96239.81
2022-09-22T01:47:21.915Z,96233.06
2022-09-22T01:52:24.608Z,96227.59
2022-09-22T01:57:27.410Z,96230.22
2022-09-22T02:02:30.343Z,96240.66
2022-09-22T02:07:33.832Z,96234.06
2022-09-22T02:12:37.043Z,96243.03
2022-09-22T02:17:40.291Z,96235.03
2022-09-22T02:22:42.994Z,96238.16
2022-09-22T02:27:45.696Z,96241.66
2022-09-22T02:32:48.656Z,96239.56
2022-09-22T02:37:51.351Z,96243.28
2022-09-22T02:42:54.495Z,96245.47
2022-09-22T02:47:57.673Z,96238.03
2022-09-22T02:53:00.840Z,96254.38
2022-09-22T02:58:04.353Z,96250.31
2022-09-22T03:03:07.914Z,96249.56
2022-09-22T03:08:11.393Z,96249.06
2022-09-22T03:13:17.208Z,96239.06
2022-09-22T03:18:20.802Z,96245.28
2022-09-22T03:23:23.947Z,96246.31
2022-09-22T03:28:27.110Z,96247.56
2022-09-22T03:33:31.129Z,96250.91
2022-09-22T03:38:34.862Z,96247.00
2022-09-22T03:43:38.344Z,96236.34
2022-09-22T03:48:44.979Z,96237.38
2022-09-22T03:53:48.537Z,96234.94
2022-09-22T03:58:51.709Z,96232.50
2022-09-22T04:03:54.861Z,96241.97
2022-09-22T04:08:58.065Z,96238.13
2022-09-22T04:14:01.463Z,96238.03
2022-09-22T04:19:07.445Z,96239.06
2022-09-22T04:24:11.304Z,96225.34
2022-09-22T04:29:18.484Z,96233.44
2022-09-22T04:34:21.641Z,96230.34
2022-09-22T04:39:24.842Z,96239.38
2022-09-22T04:44:28.194Z,96245.41
2022-09-22T04:49:32.075Z,96245.56
2022-09-22T04:54:35.437Z,96251.81
2022-09-22T04:59:38.233Z,96245.56
2022-09-22T05:04:40.945Z,96262.63
2022-09-22T05:09:43.652Z,96262.34
2022-09-22T05:14:46.472Z,96271.00
2022-09-22T05:19:49.347Z,96270.34
2022-09-22T05:24:52.054Z,96274.56
2022-09-22T05:29:55.274Z,96259.75
2022-09-22T05:34:58.108Z,96269.09
2022-09-22T05:40:00.934Z,96275.00
2022-09-22T05:45:03.817Z,96272.69
2022-09-22T05:50:07.288Z,96279.97
2022-09-22T05:55:10.091Z,96281.72
2022-09-22T06:00:13.103Z,96280.50
2022-09-22T06:05:18.302Z,96272.13
2022-09-22T06:10:22.245Z,96270.44
2022-09-22T06:15:24.984Z,96273.34
2022-09-22T06:20:27.715Z,96269.09
2022-09-22T06:25:30.946Z,96275.13
2022-09-22T06:30:33.649Z,96268.41
2022-09-22T06:35:37.955Z,96268.34
2022-09-22T06:40:42.316Z,96257.97
2022-09-22T06:45:46.727Z,96259.84
2022-09-22T06:50:49.466Z,96247.41
2022-09-22T06:55:53.954Z,96251.09
2022-09-22T07:00:57.781Z,96241.84
2022-09-22T07:06:01.422Z,96238.75
2022-09-22T07:11:04.753Z,96238.97
2022-09-22T07:16:08.383Z,96229.06
2022-09-22T07:21:11.938Z,96228.31
2022-09-22T07:26:15.894Z,96232.72
2022-09-22T07:31:19.274Z,96234.91
2022-09-22T07:36:22.633Z,96237.19
2022-09-22T07:41:27.610Z,96238.22
2022-09-22T07:46:32.071Z,96236.31
2022-09-22T07:51:35.437Z,96236.75
2022-09-22T07:56:40.112Z,96228.75
2022-09-22T08:01:44.431Z,96230.28
2022-09-22T08:06:48.726Z,96235.22
2022-09-22T08:11:53.129Z,96233.47
2022-09-22T08:16:56.441Z,96227.13
2022-09-22T08:21:59.623Z,96234.91
2022-09-22T08:27:02.927Z,96233.84
2022-09-22T08:32:06.332Z,96228.34
2022-09-22T08:37:10.708Z,96232.09
2022-09-22T08:42:13.901Z,96234.66
2022-09-22T08:47:17.230Z,96230.22
2022-09-22T08:52:20.925Z,96224.66
2022-09-22T08:57:24.666Z,96225.13
2022-09-22T09:02:28.255Z,96227.50
2022-09-22T09:07:33.231Z,96229.88
2022-09-22T09:12:36.496Z,96235.69
2022-09-22T09:17:39.705Z,96220.72
2022-09-22T09:22:45.094Z,96218.59
2022-09-22T09:27:51.689Z,96206.78
2022-09-22T09:32:56.021Z,96216.44
2022-09-22T09:37:59.301Z,96219.44
2022-09-22T09:43:03.655Z,96215.66
2022-09-22T09:48:09.771Z,96214.59
2022-09-22T09:53:12.944Z,96206.75
2022-09-22T09:58:36.093Z,96211.34
2022-09-22T10:03:39.296Z,96200.31
2022-09-22T10:08:43.479Z,96197.31
2022-09-22T10:13:47.210Z,96188.81
2022-09-22T10:18:50.645Z,96187.66
2022-09-22T10:23:54.002Z,96185.31
2022-09-22T10:28:57.370Z,96182.88
2022-09-22T10:34:01.766Z,96171.97
2022-09-22T10:39:04.974Z,96161.50
2022-09-22T10:44:34.615Z,96169.41
2022-09-22T10:49:33.791Z,96172.03
2022-09-22T10:54:39.363Z,96170.41
2022-09-22T10:59:44.976Z,96169.94
2022-09-22T11:04:48.290Z,96164.56
2022-09-22T11:10:09.308Z,96164.41
2022-09-22T11:15:13.269Z,96162.94
2022-09-22T11:20:16.694Z,96158.47
2022-09-22T11:25:19.802Z,96154.25
2022-09-22T11:30:23.232Z,96139.84
2022-09-22T11:35:26.137Z,96148.47
2022-09-22T11:40:29.533Z,96138.19
2022-09-22T11:45:32.270Z,96137.50
2022-09-22T11:50:35.137Z,96134.19
2022-09-22T11:55:38.024Z,96125.13
2022-09-22T12:00:40.901Z,96125.69
2022-09-22T12:05:44.719Z,96124.31
2022-09-22T12:10:48.069Z,96121.91
2022-09-22T12:15:50.988Z,96118.34
2022-09-22T12:20:54.128Z,96115.81
2022-09-22T12:25:57.247Z,96109.81
2022-09-22T12:31:00.563Z,96104.25
2022-09-22T12:36:03.635Z,96107.13
2022-09-22T12:41:06.667Z,96102.22
2022-09-22T12:46:09.475Z,96103.63
2022-09-22T12:51:12.256Z,96089.41
2022-09-22T12:56:15.470Z,96090.81
2022-09-22T13:01:18.383Z,96084.19
2022-09-22T13:06:21.150Z,96084.13
2022-09-22T13:11:24.976Z,96082.72
2022-09-22T13:16:27.716Z,96078.38
2022-09-22T13:21:30.469Z,96075.28
2022-09-22T13:26:35.246Z,96076.16
2022-09-22T13:31:38.077Z,96079.69
2022-09-22T13:36:41.508Z,96076.81
2022-09-22T13:41:44.937Z,96071.53
2022-09-22T13:46:47.765Z,96077.75
2022-09-22T13:51:52.714Z,96071.38
2022-09-22T13:56:56.488Z,96069.00
2022-09-22T14:02:02.139Z,96065.06
2022-09-22T14:07:06.398Z,96063.28
2022-09-22T14:12:09.932Z,96057.19
2022-09-22T14:17:13.430Z,96055.75
2022-09-22T14:22:17.805Z,96049.69
2022-09-22T14:27:21.582Z,96043.97
2022-09-22T14:32:24.781Z,96041.41
2022-09-22T14:37:29.235Z,96038.75
2022-09-22T14:42:33.612Z,96029.91
2022-09-22T14:47:40.347Z,96040.31
2022-09-22T14:52:43.744Z,96034.75
2022-09-22T14:57:48.013Z,96031.75
2022-09-22T15:02:51.307Z,96033.69
2022-09-22T15:07:54.418Z,96026.97
2022-09-22T15:12:57.560Z,96021.25
2022-09-22T15:18:19.338Z,96022.38
2022-09-22T15:23:31.663Z,96023.41
2022-09-22T15:28:37.858Z,96021.56
2022-09-22T15:33:46.017Z,96024.06
2022-09-22T15:38:50.136Z,96019.59
2022-09-22T15:43:54.230Z,96013.72
2022-09-22T15:48:57.493Z,96015.31
2022-09-22T15:54:00.878Z,96019.13
2022-09-22T15:59:04.901Z,96025.94
2022-09-22T16:04:08.235Z,96017.59
2022-09-22T16:09:11.522Z,96025.81
2022-09-22T16:14:14.707Z,96028.56
2022-09-22T16:19:18.028Z,96027.25
2022-09-22T16:24:22.780Z,96024.31
2022-09-22T16:29:26.279Z,96021.16
2022-09-22T16:34:30.425Z,96018.25
2022-09-22T16:39:33.881Z,96026.38
2022-09-22T16:44:37.276Z,96024.00
2022-09-22T16:49:41.172Z,96020.81
2022-09-22T16:54:44.599Z,96022.53
2022-09-22T16:59:52.725Z,96027.38
2022-09-22T17:04:56.016Z,96029.03
2022-09-22T17:10:00.453Z,96027.22
2022-09-22T17:15:03.784Z,96025.38
2022-09-22T17:20:07.137Z,96022.97
2022-09-22T17:25:10.684Z,96026.47
2022-09-22T17:30:14.435Z,96024.31
2022-09-22T17:35:17.616Z,96035.34
2022-09-22T17:40:21.674Z,96033.41
2022-09-22T17:45:24.921Z,96036.56
2022-09-22T17:50:46.091Z,96039.50
2022-09-22T17:55:49.359Z,96042.84
2022-09-22T18:00:52.668Z,96048.97
2022-09-22T18:06:04.056Z,96049.69
2022-09-22T18:11:07.361Z,96050.16
2022-09-22T18:16:10.215Z,96041.53
2022-09-22T18:21:12.974Z,96040.19
2022-09-22T18:26:17.935Z,96041.25
2022-09-22T18:31:27.345Z,96048.31
2022-09-22T18:36:31.302Z,96044.00
2022-09-22T18:41:36.434Z,96052.41
2022-09-22T18:46:39.233Z,96052.56
2022-09-22T18:51:42.573Z,96054.38
2022-09-22T18:56:45.877Z,96049.16
2022-09-22T19:01:49.961Z,96054.34
2022-09-22T19:07:10.501Z,96062.00
2022-09-22T19:12:13.290Z,96058.72
2022-09-22T19:17:17.264Z,96068.81
2022-09-22T19:22:22.096Z,96061.97
2022-09-22T19:27:25.909Z,96064.78
2022-09-22T19:32:28.934Z,96065.59
2022-09-22T19:37:35.970Z,96059.13
2022-09-22T19:42:40.424Z,96060.88
2022-09-22T19:47:43.371Z,96057.56
2022-09-22T19:52:46.128Z,96067.38
2022-09-22T19:57:48.823Z,96058.22
2022-09-22T20:02:57.983Z,96046.09
2022-09-22T20:08:01.464Z,96041.69
2022-09-22T20:13:24.478Z,96049.25
2022-09-22T20:18:27.219Z,96053.41
2022-09-22T20:23:29.920Z,96049.84
2022-09-22T20:28:32.613Z,96039.78
2022-09-22T20:33:38.669Z,96042.91
2022-09-22T20:38:41.921Z,96035.25
2022-09-22T20:43:44.634Z,96039.47
2022-09-22T20:48:47.330Z,96032.53
2022-09-22T20:53:50.017Z,96029.44
2022-09-22T20:58:52.697Z,96021.34
2022-09-22T21:03:55.471Z,96034.50
2022-09-22T21:09:15.963Z,96032.03
2022-09-22T21:14:18.979Z,96024.81
2022-09-22T21:19:21.647Z,96017.72
2022-09-22T21:24:25.249Z,96017.09
2022-09-22T21:29:29.439Z,96015.06
2022-09-22T21:34:32.657Z,96016.75
2022-09-22T21:39:35.961Z,96021.47
2022-09-22T21:44:39.762Z,96028.41
2022-09-22T21:49:42.925Z,96020.59
2022-09-22T21:54:46.788Z,96014.09
2022-09-22T21:59:53.761Z,96020.66
2022-09-22T22:05:00.884Z,96014.50
2022-09-22T22:10:04.190Z,96003.81
2022-09-22T22:15:07.429Z,95994.34
2022-09-22T22:20:10.605Z,95982.69
2022-09-22T22:25:17.392Z,95986.59
2022-09-22T22:30:20.745Z,95981.25
2022-09-22T22:35:26.496Z,95977.84
2022-09-22T22:40:29.947Z,95978.31
2022-09-22T22:45:33.440Z,95985.78
2022-09-22T22:50:40.086Z,95990.47
2022-09-22T22:55:43.353Z,95988.84
2022-09-22T23:00:46.565Z,95987.25
2022-09-22T23:05:56.887Z,95984.47
2022-09-22T23:11:00.148Z,95985.44
2022-09-22T23:16:04.040Z,95988.63
2022-09-22T23:21:07.445Z,95982.34
2022-09-22T23:26:10.624Z,95977.34
2022-09-22T23:31:18.299Z,95981.81
2022-09-22T23:36:21.750Z,95979.06
2022-09-22T23:41:34.935Z,95978.34
2022-09-22T23:46:38.603Z,95975.81
2022-09-22T23:51:42.273Z,95973.19
2022-09-22T23:56:47.568Z,95975.44
